sensor_id;sensor_type;location;lat;lon;timestamp;pressure;altitude;pressure_sealevel;temperature;humidity
12219;BME280;6172;42.646;23.344;2022-07-11T00:02:26;94550.66;;;16.42;99.65
12219;BME280;6172;42.646;23.344;2022-07-11T00:04:53;94561.50;;;16.37;100.00
12219;BME280;6172;42.646;23.344;2022-07-11T00:07:22;94563.13;;;16.25;100.00
12219;BME280;6172;42.646;23.344;2022-07-11T00:09:49;94561.47;;;16.28;99.37
12219;BME280;6172;42.646;23.344;2022-07-11T00:12:16;94558.28;;;16.29;99.75
12219;BME280;6172;42.646;23.344;2022-07-11T00:14:46;94557.91;;;16.09;100.00
12219;BME280;6172;42.646;23.344;2022-07-11T00:17:13;94564.25;;;15.97;100.00
12219;BME280;6172;42.646;23.344;2022-07-11T00:19:40;94569.34;;;16.08;100.00
12219;BME280;6172;42.646;23.344;2022-07-11T00:22:08;94572.53;;;16.06;100.00
12219;BME280;6172;42.646;23.344;2022-07-11T00:24:38;94562.28;;;15.98;100.00
12219;BME280;6172;42.646;23.344;2022-07-11T00:27:05;94573.06;;;15.92;100.00
12219;BME280;6172;42.646;23.344;2022-07-11T00:29:32;94571.63;;;15.79;100.00
12219;BME280;6172;42.646;23.344;2022-07-11T00:31:59;94579.53;;;15.77;100.00
12219;BME280;6172;42.646;23.344;2022-07-11T00:34:27;94581.75;;;15.69;100.00
12219;BME280;6172;42.646;23.344;2022-07-11T00:36:54;94583.75;;;15.69;100.00
12219;BME280;6172;42.646;23.344;2022-07-11T00:39:21;94583.56;;;15.63;100.00
12219;BME280;6172;42.646;23.344;2022-07-11T00:41:49;94585.41;;;15.66;100.00
12219;BME280;6172;42.646;23.344;2022-07-11T00:44:16;94582.66;;;15.66;100.00
12219;BME280;6172;42.646;23.344;2022-07-11T00:46:43;94577.69;;;15.74;100.00
12219;BME280;6172;42.646;23.344;2022-07-11T00:49:11;94573.84;;;15.71;100.00
12219;BME280;6172;42.646;23.344;2022-07-11T00:51:38;94581.75;;;15.69;100.00
12219;BME280;6172;42.646;23.344;2022-07-11T00:54:06;94586.25;;;15.54;100.00
12219;BME280;6172;42.646;23.344;2022-07-11T00:56:34;94586.00;;;15.61;100.00
12219;BME280;6172;42.646;23.344;2022-07-11T00:59:03;94592.25;;;15.62;100.00
12219;BME280;6172;42.646;23.344;2022-07-11T01:01:31;94589.06;;;15.63;100.00
12219;BME280;6172;42.646;23.344;2022-07-11T01:04:02;94588.09;;;15.57;100.00
12219;BME280;6172;42.646;23.344;2022-07-11T01:06:29;94586.75;;;15.62;100.00
12219;BME280;6172;42.646;23.344;2022-07-11T01:08:56;94581.72;;;15.60;100.00
12219;BME280;6172;42.646;23.344;2022-07-11T01:11:23;94586.63;;;15.44;100.00
12219;BME280;6172;42.646;23.344;2022-07-11T01:13:52;94579.72;;;15.39;100.00
12219;BME280;6172;42.646;23.344;2022-07-11T01:16:23;94575.53;;;15.47;100.00
12219;BME280;6172;42.646;23.344;2022-07-11T01:18:51;94575.97;;;15.46;100.00
12219;BME280;6172;42.646;23.344;2022-07-11T01:21:30;94577.50;;;15.47;100.00
12219;BME280;6172;42.646;23.344;2022-07-11T01:23:59;94578.84;;;15.42;100.00
12219;BME280;6172;42.646;23.344;2022-07-11T01:26:27;94583.25;;;15.40;100.00
12219;BME280;6172;42.646;23.344;2022-07-11T01:28:55;94588.47;;;15.47;100.00
12219;BME280;6172;42.646;23.344;2022-07-11T01:31:23;94578.75;;;15.33;100.00
12219;BME280;6172;42.646;23.344;2022-07-11T01:33:52;94571.44;;;15.30;100.00
12219;BME280;6172;42.646;23.344;2022-07-11T01:36:19;94575.72;;;15.31;100.00
12219;BME280;6172;42.646;23.344;2022-07-11T01:38:46;94568.38;;;15.28;100.00
12219;BME280;6172;42.646;23.344;2022-07-11T01:41:14;94573.41;;;15.30;100.00
12219;BME280;6172;42.646;23.344;2022-07-11T01:43:42;94574.63;;;15.29;100.00
12219;BME280;6172;42.646;23.344;2022-07-11T01:46:09;94569.25;;;15.25;100.00
12219;BME280;6172;42.646;23.344;2022-07-11T01:48:36;94571.28;;;15.12;100.00
12219;BME280;6172;42.646;23.344;2022-07-11T01:51:03;94567.13;;;15.07;100.00
12219;BME280;6172;42.646;23.344;2022-07-11T01:53:30;94576.31;;;15.14;100.00
12219;BME280;6172;42.646;23.344;2022-07-11T01:55:57;94589.16;;;15.17;100.00
12219;BME280;6172;42.646;23.344;2022-07-11T01:58:25;94594.53;;;15.20;100.00
12219;BME280;6172;42.646;23.344;2022-07-11T02:00:54;94584.91;;;15.16;100.00
12219;BME280;6172;42.646;23.344;2022-07-11T02:03:21;94588.38;;;15.16;100.00
12219;BME280;6172;42.646;23.344;2022-07-11T02:05:48;94589.81;;;15.21;100.00
12219;BME280;6172;42.646;23.344;2022-07-11T02:08:15;94588.09;;;15.14;100.00
12219;BME280;6172;42.646;23.344;2022-07-11T02:10:44;94595.44;;;15.17;100.00
12219;BME280;6172;42.646;23.344;2022-07-11T02:13:13;94594.81;;;15.00;100.00
12219;BME280;6172;42.646;23.344;2022-07-11T02:15:42;94599.75;;;15.06;100.00
12219;BME280;6172;42.646;23.344;2022-07-11T02:18:11;94596.69;;;15.03;100.00
12219;BME280;6172;42.646;23.344;2022-07-11T02:20:39;94591.31;;;15.00;100.00
12219;BME280;6172;42.646;23.344;2022-07-11T02:23:06;94599.38;;;14.82;100.00
12219;BME280;6172;42.646;23.344;2022-07-11T02:25:33;94599.03;;;14.80;100.00
12219;BME280;6172;42.646;23.344;2022-07-11T02:28:04;94598.94;;;14.83;100.00
12219;BME280;6172;42.646;23.344;2022-07-11T02:30:31;94607.41;;;14.64;100.00
12219;BME280;6172;42.646;23.344;2022-07-11T02:32:59;94610.78;;;14.68;100.00
12219;BME280;6172;42.646;23.344;2022-07-11T02:35:27;94607.41;;;14.51;100.00
12219;BME280;6172;42.646;23.344;2022-07-11T02:37:53;94604.66;;;14.51;100.00
12219;BME280;6172;42.646;23.344;2022-07-11T02:40:20;94605.44;;;14.52;100.00
12219;BME280;6172;42.646;23.344;2022-07-11T02:42:47;94607.19;;;14.33;100.00
12219;BME280;6172;42.646;23.344;2022-07-11T02:45:14;94610.81;;;14.43;100.00
12219;BME280;6172;42.646;23.344;2022-07-11T02:47:41;94612.88;;;14.51;100.00
12219;BME280;6172;42.646;23.344;2022-07-11T02:50:11;94610.13;;;14.51;100.00
12219;BME280;6172;42.646;23.344;2022-07-11T02:52:39;94610.91;;;14.52;100.00
12219;BME280;6172;42.646;23.344;2022-07-11T02:55:08;94605.44;;;14.52;100.00
12219;BME280;6172;42.646;23.344;2022-07-11T02:57:36;94607.97;;;14.46;100.00
12219;BME280;6172;42.646;23.344;2022-07-11T03:00:05;94612.88;;;14.39;100.00
12219;BME280;6172;42.646;23.344;2022-07-11T03:02:33;94626.16;;;14.40;100.00
12219;BME280;6172;42.646;23.344;2022-07-11T03:04:59;94626.81;;;14.44;100.00
12219;BME280;6172;42.646;23.344;2022-07-11T03:07:28;94628.56;;;14.38;100.00
12219;BME280;6172;42.646;23.344;2022-07-11T03:09:55;94632.09;;;14.39;100.00
12219;BME280;6172;42.646;23.344;2022-07-11T03:12:22;94630.13;;;14.39;100.00
12219;BME280;6172;42.646;23.344;2022-07-11T03:14:49;94638.00;;;14.37;100.00
12219;BME280;6172;42.646;23.344;2022-07-11T03:17:16;94627.59;;;14.45;100.00
12219;BME280;6172;42.646;23.344;2022-07-11T03:19:44;94622.88;;;14.45;100.00
12219;BME280;6172;42.646;23.344;2022-07-11T03:22:12;94636.25;;;14.56;100.00
12219;BME280;6172;42.646;23.344;2022-07-11T03:24:40;94636.38;;;14.52;100.00
12219;BME280;6172;42.646;23.344;2022-07-11T03:27:07;94639.97;;;14.62;100.00
12219;BME280;6172;42.646;23.344;2022-07-11T03:29:34;94633.81;;;14.70;100.00
12219;BME280;6172;42.646;23.344;2022-07-11T03:32:01;94627.81;;;14.75;100.00
12219;BME280;6172;42.646;23.344;2022-07-11T03:34:28;94635.69;;;14.61;100.00
12219;BME280;6172;42.646;23.344;2022-07-11T03:36:55;94630.00;;;14.55;100.00
12219;BME280;6172;42.646;23.344;2022-07-11T03:39:22;94630.88;;;14.40;100.00
12219;BME280;6172;42.646;23.344;2022-07-11T03:41:50;94629.00;;;14.37;100.00
12219;BME280;6172;42.646;23.344;2022-07-11T03:44:17;94640.22;;;14.42;100.00
12219;BME280;6172;42.646;23.344;2022-07-11T03:46:44;94627.38;;;14.52;100.00
12219;BME280;6172;42.646;23.344;2022-07-11T03:49:11;94643.25;;;14.57;100.00
12219;BME280;6172;42.646;23.344;2022-07-11T03:51:38;94641.84;;;14.40;100.00
12219;BME280;6172;42.646;23.344;2022-07-11T03:54:05;94650.97;;;14.49;100.00
12219;BME280;6172;42.646;23.344;2022-07-11T03:56:33;94651.16;;;14.55;100.00
12219;BME280;6172;42.646;23.344;2022-07-11T03:59:01;94652.25;;;14.70;100.00
12219;BME280;6172;42.646;23.344;2022-07-11T04:01:28;94657.09;;;14.78;100.00
12219;BME280;6172;42.646;23.344;2022-07-11T04:03:55;94657.31;;;14.84;100.00
12219;BME280;6172;42.646;23.344;2022-07-11T04:06:22;94667.94;;;14.94;100.00
12219;BME280;6172;42.646;23.344;2022-07-11T04:08:49;94671.66;;;15.00;100.00
12219;BME280;6172;42.646;23.344;2022-07-11T04:11:16;94669.25;;;15.03;100.00
12219;BME280;6172;42.646;23.344;2022-07-11T04:13:43;94666.50;;;15.03;100.00
12219;BME280;6172;42.646;23.344;2022-07-11T04:16:11;94667.34;;;15.12;100.00
12219;BME280;6172;42.646;23.344;2022-07-11T04:18:38;94670.75;;;15.16;100.00
12219;BME280;6172;42.646;23.344;2022-07-11T04:21:05;94677.78;;;15.17;100.00
12219;BME280;6172;42.646;23.344;2022-07-11T04:23:35;94677.31;;;15.31;100.00
12219;BME280;6172;42.646;23.344;2022-07-11T04:26:02;94674.22;;;15.29;100.00
12219;BME280;6172;42.646;23.344;2022-07-11T04:28:29;94679.47;;;15.36;100.00
12219;BME280;6172;42.646;23.344;2022-07-11T04:30:57;94681.31;;;15.52;100.00
12219;BME280;6172;42.646;23.344;2022-07-11T04:33:26;94672.84;;;15.46;100.00
12219;BME280;6172;42.646;23.344;2022-07-11T04:35:52;94677.25;;;15.44;100.00
12219;BME280;6172;42.646;23.344;2022-07-11T04:38:19;94680.41;;;15.55;100.00
12219;BME280;6172;42.646;23.344;2022-07-11T04:40:47;94686.16;;;15.69;100.00
12219;BME280;6172;42.646;23.344;2022-07-11T04:43:14;94690.47;;;15.70;100.00
12219;BME280;6172;42.646;23.344;2022-07-11T04:45:41;94677.03;;;15.85;100.00
12219;BME280;6172;42.646;23.344;2022-07-11T04:48:08;94682.00;;;15.77;100.00
12219;BME280;6172;42.646;23.344;2022-07-11T04:50:36;94680.69;;;15.91;100.00
12219;BME280;6172;42.646;23.344;2022-07-11T04:53:03;94675.66;;;15.89;100.00
12219;BME280;6172;42.646;23.344;2022-07-11T04:55:30;94681.81;;;15.93;100.00
12219;BME280;6172;42.646;23.344;2022-07-11T04:57:57;94677.75;;;15.85;100.00
12219;BME280;6172;42.646;23.344;2022-07-11T05:00:24;94676.50;;;15.77;100.00
12219;BME280;6172;42.646;23.344;2022-07-11T05:02:52;94679.81;;;15.94;100.00
12219;BME280;6172;42.646;23.344;2022-07-11T05:05:20;94692.91;;;16.11;100.00
12219;BME280;6172;42.646;23.344;2022-07-11T05:07:50;94696.19;;;16.19;100.00
12219;BME280;6172;42.646;23.344;2022-07-11T05:10:18;94691.66;;;16.03;100.00
12219;BME280;6172;42.646;23.344;2022-07-11T05:12:45;94696.81;;;16.23;100.00
12219;BME280;6172;42.646;23.344;2022-07-11T05:15:12;94687.28;;;16.36;100.00
12219;BME280;6172;42.646;23.344;2022-07-11T05:17:40;94702.16;;;16.48;100.00
12219;BME280;6172;42.646;23.344;2022-07-11T05:20:07;94704.94;;;16.57;100.00
12219;BME280;6172;42.646;23.344;2022-07-11T05:22:34;94707.63;;;16.69;100.00
12219;BME280;6172;42.646;23.344;2022-07-11T05:25:04;94699.19;;;16.64;99.81
12219;BME280;6172;42.646;23.344;2022-07-11T05:27:34;94707.94;;;16.71;100.00
12219;BME280;6172;42.646;23.344;2022-07-11T05:30:03;94703.03;;;16.75;99.40
12219;BME280;6172;42.646;23.344;2022-07-11T05:32:31;94703.53;;;16.83;96.90
12219;BME280;6172;42.646;23.344;2022-07-11T05:35:00;94695.00;;;16.90;94.27
12219;BME280;6172;42.646;23.344;2022-07-11T05:37:31;94706.38;;;17.01;93.22
12219;BME280;6172;42.646;23.344;2022-07-11T05:39:59;94702.38;;;17.02;92.10
12219;BME280;6172;42.646;23.344;2022-07-11T05:42:28;94701.91;;;16.94;90.11
12219;BME280;6172;42.646;23.344;2022-07-11T05:44:55;94704.81;;;17.00;89.11
12219;BME280;6172;42.646;23.344;2022-07-11T05:47:23;94708.69;;;17.11;87.64
12219;BME280;6172;42.646;23.344;2022-07-11T05:49:49;94707.22;;;17.28;78.64
12219;BME280;6172;42.646;23.344;2022-07-11T05:52:17;94699.88;;;17.44;75.44
12219;BME280;6172;42.646;23.344;2022-07-11T05:54:44;94702.94;;;17.37;73.76
12219;BME280;6172;42.646;23.344;2022-07-11T05:57:11;94695.03;;;17.84;67.82
12219;BME280;6172;42.646;23.344;2022-07-11T05:59:40;94679.16;;;19.54;60.89
12219;BME280;6172;42.646;23.344;2022-07-11T06:02:07;94696.81;;;21.25;52.62
12219;BME280;6172;42.646;23.344;2022-07-11T06:04:34;94690.03;;;23.40;43.33
12219;BME280;6172;42.646;23.344;2022-07-11T06:07:02;94703.25;;;25.06;37.56
12219;BME280;6172;42.646;23.344;2022-07-11T06:09:29;94694.88;;;26.76;32.68
12219;BME280;6172;42.646;23.344;2022-07-11T06:11:55;94689.94;;;27.52;29.93
12219;BME280;6172;42.646;23.344;2022-07-11T06:14:22;94690.88;;;27.01;28.91
12219;BME280;6172;42.646;23.344;2022-07-11T06:16:53;94681.06;;;28.57;27.44
12219;BME280;6172;42.646;23.344;2022-07-11T06:19:20;94683.94;;;28.52;27.91
12219;BME280;6172;42.646;23.344;2022-07-11T06:21:47;94676.81;;;29.19;26.36
12219;BME280;6172;42.646;23.344;2022-07-11T06:24:14;94685.94;;;29.38;26.47
12219;BME280;6172;42.646;23.344;2022-07-11T06:26:41;94679.88;;;30.05;25.32
12219;BME280;6172;42.646;23.344;2022-07-11T06:29:09;94687.91;;;30.61;24.43
12219;BME280;6172;42.646;23.344;2022-07-11T06:31:37;94688.91;;;30.63;24.91
12219;BME280;6172;42.646;23.344;2022-07-11T06:34:08;94686.47;;;30.20;24.84
12219;BME280;6172;42.646;23.344;2022-07-11T06:36:35;94703.38;;;30.54;23.88
12219;BME280;6172;42.646;23.344;2022-07-11T06:39:02;94691.44;;;30.27;23.67
12219;BME280;6172;42.646;23.344;2022-07-11T06:41:30;94690.47;;;28.78;24.77
12219;BME280;6172;42.646;23.344;2022-07-11T06:43:57;94685.25;;;29.77;24.33
12219;BME280;6172;42.646;23.344;2022-07-11T06:46:24;94687.84;;;29.88;24.06
12219;BME280;6172;42.646;23.344;2022-07-11T06:48:52;94684.69;;;30.90;23.30
12219;BME280;6172;42.646;23.344;2022-07-11T06:51:23;94690.91;;;31.09;22.87
12219;BME280;6172;42.646;23.344;2022-07-11T06:53:51;94681.97;;;30.98;22.47
12219;BME280;6172;42.646;23.344;2022-07-11T06:56:19;94685.59;;;29.73;24.03
12219;BME280;6172;42.646;23.344;2022-07-11T06:58:46;94678.41;;;30.51;22.64
12219;BME280;6172;42.646;23.344;2022-07-11T07:01:13;94678.50;;;29.41;23.98
12219;BME280;6172;42.646;23.344;2022-07-11T07:03:40;94682.31;;;29.56;23.98
12219;BME280;6172;42.646;23.344;2022-07-11T07:06:08;94682.09;;;28.36;25.93
12219;BME280;6172;42.646;23.344;2022-07-11T07:08:38;94672.28;;;29.61;24.22
12219;BME280;6172;42.646;23.344;2022-07-11T07:11:05;94671.66;;;29.36;23.77
12219;BME280;6172;42.646;23.344;2022-07-11T07:13:32;94679.25;;;28.60;24.53
12219;BME280;6172;42.646;23.344;2022-07-11T07:16:00;94694.53;;;30.97;22.65
12219;BME280;6172;42.646;23.344;2022-07-11T07:18:27;94680.56;;;30.58;22.36
12219;BME280;6172;42.646;23.344;2022-07-11T07:20:56;94670.25;;;31.48;21.07
12219;BME280;6172;42.646;23.344;2022-07-11T07:23:26;94686.16;;;29.40;23.22
12219;BME280;6172;42.646;23.344;2022-07-11T07:25:55;94676.19;;;28.76;24.66
12219;BME280;6172;42.646;23.344;2022-07-11T07:28:24;94675.28;;;28.87;25.40
12219;BME280;6172;42.646;23.344;2022-07-11T07:30:53;94674.16;;;29.27;24.81
12219;BME280;6172;42.646;23.344;2022-07-11T07:33:21;94675.22;;;29.81;24.03
12219;BME280;6172;42.646;23.344;2022-07-11T07:35:48;94677.38;;;30.27;23.76
12219;BME280;6172;42.646;23.344;2022-07-11T07:38:15;94666.72;;;28.79;25.74
12219;BME280;6172;42.646;23.344;2022-07-11T07:40:42;94677.50;;;28.38;26.74
12219;BME280;6172;42.646;23.344;2022-07-11T07:43:11;94679.78;;;27.73;27.37
12219;BME280;6172;42.646;23.344;2022-07-11T07:45:39;94666.38;;;28.51;26.85
12219;BME280;6172;42.646;23.344;2022-07-11T07:48:06;94670.16;;;28.35;26.99
12219;BME280;6172;42.646;23.344;2022-07-11T07:50:33;94674.94;;;29.53;26.13
12219;BME280;6172;42.646;23.344;2022-07-11T07:52:59;94674.59;;;30.74;24.27
12219;BME280;6172;42.646;23.344;2022-07-11T07:55:27;94663.88;;;31.47;23.40
12219;BME280;6172;42.646;23.344;2022-07-11T07:57:54;94669.03;;;30.82;23.63
12219;BME280;6172;42.646;23.344;2022-07-11T08:00:25;94677.16;;;29.86;25.37
12219;BME280;6172;42.646;23.344;2022-07-11T08:03:09;94660.56;;;29.44;25.00
12219;BME280;6172;42.646;23.344;2022-07-11T08:05:37;94664.06;;;28.87;25.65
12219;BME280;6172;42.646;23.344;2022-07-11T08:08:18;94670.56;;;29.71;25.09
12219;BME280;6172;42.646;23.344;2022-07-11T08:10:48;94673.78;;;28.49;26.46
12219;BME280;6172;42.646;23.344;2022-07-11T08:13:16;94670.91;;;28.73;26.23
12219;BME280;6172;42.646;23.344;2022-07-11T08:15:44;94668.94;;;28.68;26.32
12219;BME280;6172;42.646;23.344;2022-07-11T08:18:11;94674.91;;;28.96;25.87
12219;BME280;6172;42.646;23.344;2022-07-11T08:20:38;94664.75;;;29.69;24.49
12219;BME280;6172;42.646;23.344;2022-07-11T08:23:06;94663.72;;;28.90;25.48
12219;BME280;6172;42.646;23.344;2022-07-11T08:25:33;94666.19;;;28.81;25.50
12219;BME280;6172;42.646;23.344;2022-07-11T08:28:00;94666.97;;;28.81;26.17
12219;BME280;6172;42.646;23.344;2022-07-11T08:30:27;94673.03;;;27.63;27.24
12219;BME280;6172;42.646;23.344;2022-07-11T08:32:57;94673.75;;;27.45;26.69
12219;BME280;6172;42.646;23.344;2022-07-11T08:35:25;94667.38;;;28.11;25.96
12219;BME280;6172;42.646;23.344;2022-07-11T08:37:55;94671.50;;;28.28;26.39
12219;BME280;6172;42.646;23.344;2022-07-11T08:40:24;94673.97;;;29.06;25.01
12219;BME280;6172;42.646;23.344;2022-07-11T08:42:52;94677.63;;;28.27;26.02
12219;BME280;6172;42.646;23.344;2022-07-11T08:45:26;94683.97;;;28.09;26.19
12219;BME280;6172;42.646;23.344;2022-07-11T08:47:58;94679.09;;;27.43;26.58
12219;BME280;6172;42.646;23.344;2022-07-11T08:50:29;94675.34;;;27.35;26.64
12219;BME280;6172;42.646;23.344;2022-07-11T08:52:59;94687.47;;;27.43;26.60
12219;BME280;6172;42.646;23.344;2022-07-11T08:55:29;94689.38;;;26.07;27.90
12219;BME280;6172;42.646;23.344;2022-07-11T08:57:57;94690.19;;;25.91;27.80
12219;BME280;6172;42.646;23.344;2022-07-11T09:00:25;94685.97;;;26.77;27.13
12219;BME280;6172;42.646;23.344;2022-07-11T09:02:55;94694.13;;;25.39;27.96
12219;BME280;6172;42.646;23.344;2022-07-11T09:05:26;94697.06;;;25.85;27.40
12219;BME280;6172;42.646;23.344;2022-07-11T09:07:56;94693.38;;;26.23;27.14
12219;BME280;6172;42.646;23.344;2022-07-11T09:10:24;94689.97;;;25.89;27.78
12219;BME280;6172;42.646;23.344;2022-07-11T09:13:00;94698.44;;;25.23;28.49
12219;BME280;6172;42.646;23.344;2022-07-11T09:15:37;94695.66;;;25.01;29.12
12219;BME280;6172;42.646;23.344;2022-07-11T09:18:30;94701.19;;;24.63;29.33
12219;BME280;6172;42.646;23.344;2022-07-11T09:21:20;94696.44;;;24.10;30.42
12219;BME280;6172;42.646;23.344;2022-07-11T09:24:05;94701.97;;;23.88;31.16
12219;BME280;6172;42.646;23.344;2022-07-11T09:26:50;94708.13;;;24.14;30.31
12219;BME280;6172;42.646;23.344;2022-07-11T09:29:22;94709.75;;;24.43;30.34
12219;BME280;6172;42.646;23.344;2022-07-11T09:32:05;94705.53;;;23.94;30.11
12219;BME280;6172;42.646;23.344;2022-07-11T09:34:33;94714.44;;;24.09;30.74
12219;BME280;6172;42.646;23.344;2022-07-11T09:37:09;94709.19;;;24.28;30.89
12219;BME280;6172;42.646;23.344;2022-07-11T09:39:45;94704.25;;;24.81;30.17
12219;BME280;6172;42.646;23.344;2022-07-11T09:42:15;94711.31;;;24.60;29.52
12219;BME280;6172;42.646;23.344;2022-07-11T09:44:56;94706.03;;;24.90;29.27
12219;BME280;6172;42.646;23.344;2022-07-11T09:47:43;94702.22;;;24.87;29.62
12219;BME280;6172;42.646;23.344;2022-07-11T09:50:11;94709.84;;;25.25;28.59
12219;BME280;6172;42.646;23.344;2022-07-11T09:52:58;94697.69;;;25.06;28.86
12219;BME280;6172;42.646;23.344;2022-07-11T09:55:26;94707.78;;;25.42;28.50
12219;BME280;6172;42.646;23.344;2022-07-11T09:57:53;94709.31;;;25.60;28.11
12219;BME280;6172;42.646;23.344;2022-07-11T10:00:22;94714.41;;;25.34;28.22
12219;BME280;6172;42.646;23.344;2022-07-11T10:02:49;94704.75;;;25.40;27.74
12219;BME280;6172;42.646;23.344;2022-07-11T10:05:19;94708.28;;;25.79;27.72
12219;BME280;6172;42.646;23.344;2022-07-11T10:07:48;94700.44;;;25.34;28.60
12219;BME280;6172;42.646;23.344;2022-07-11T10:10:16;94695.59;;;26.41;27.12
12219;BME280;6172;42.646;23.344;2022-07-11T10:12:46;94698.81;;;26.51;26.74
12219;BME280;6172;42.646;23.344;2022-07-11T10:15:15;94703.13;;;26.52;27.28
12219;BME280;6172;42.646;23.344;2022-07-11T10:17:48;94698.09;;;26.45;27.55
12219;BME280;6172;42.646;23.344;2022-07-11T10:20:24;94713.72;;;26.24;27.91
12219;BME280;6172;42.646;23.344;2022-07-11T10:23:06;94713.09;;;25.62;28.20
12219;BME280;6172;42.646;23.344;2022-07-11T10:25:42;94714.69;;;25.08;28.91
12219;BME280;6172;42.646;23.344;2022-07-11T10:28:30;94710.34;;;25.18;28.77
12219;BME280;6172;42.646;23.344;2022-07-11T10:31:03;94701.19;;;26.41;28.09
12219;BME280;6172;42.646;23.344;2022-07-11T10:33:31;94699.84;;;26.48;28.18
12219;BME280;6172;42.646;23.344;2022-07-11T10:36:09;94703.63;;;25.98;28.60
12219;BME280;6172;42.646;23.344;2022-07-11T10:39:14;94709.66;;;26.65;27.22
12219;BME280;6172;42.646;23.344;2022-07-11T10:41:42;94716.56;;;26.59;27.03
12219;BME280;6172;42.646;23.344;2022-07-11T10:44:10;94721.84;;;26.22;27.16
12219;BME280;6172;42.646;23.344;2022-07-11T10:46:38;94715.91;;;25.29;28.22
12219;BME280;6172;42.646;23.344;2022-07-11T10:49:16;94714.91;;;25.32;28.44
12219;BME280;6172;42.646;23.344;2022-07-11T10:51:51;94719.94;;;24.62;29.36
12219;BME280;6172;42.646;23.344;2022-07-11T10:54:31;94720.44;;;24.66;30.41
12219;BME280;6172;42.646;23.344;2022-07-11T10:57:16;94706.88;;;24.21;29.70
12219;BME280;6172;42.646;23.344;2022-07-11T11:00:00;94715.69;;;24.08;30.33
12219;BME280;6172;42.646;23.344;2022-07-11T11:02:58;94712.03;;;23.80;30.30
12219;BME280;6172;42.646;23.344;2022-07-11T11:05:51;94714.44;;;24.15;29.64
12219;BME280;6172;42.646;23.344;2022-07-11T11:08:44;94720.13;;;24.37;30.85
12219;BME280;6172;42.646;23.344;2022-07-11T11:11:37;94722.13;;;24.31;30.50
12219;BME280;6172;42.646;23.344;2022-07-11T11:14:24;94721.28;;;24.08;30.22
12219;BME280;6172;42.646;23.344;2022-07-11T11:16:55;94717.91;;;23.93;30.62
12219;BME280;6172;42.646;23.344;2022-07-11T11:19:52;94722.63;;;23.76;29.24
12219;BME280;6172;42.646;23.344;2022-07-11T11:22:22;94729.94;;;23.68;30.80
12219;BME280;6172;42.646;23.344;2022-07-11T11:24:51;94726.88;;;23.66;30.77
12219;BME280;6172;42.646;23.344;2022-07-11T11:27:21;94725.44;;;23.81;30.48
12219;BME280;6172;42.646;23.344;2022-07-11T11:29:51;94727.63;;;23.30;31.08
12219;BME280;6172;42.646;23.344;2022-07-11T11:32:19;94726.75;;;23.49;31.21
12219;BME280;6172;42.646;23.344;2022-07-11T11:34:48;94723.19;;;23.43;31.65
12219;BME280;6172;42.646;23.344;2022-07-11T11:37:17;94720.69;;;23.93;31.38
12219;BME280;6172;42.646;23.344;2022-07-11T11:39:45;94729.50;;;23.80;31.74
12219;BME280;6172;42.646;23.344;2022-07-11T11:42:14;94728.19;;;23.76;31.03
12219;BME280;6172;42.646;23.344;2022-07-11T11:44:52;94717.88;;;23.87;30.32
12219;BME280;6172;42.646;23.344;2022-07-11T11:47:22;94723.78;;;24.12;30.50
12219;BME280;6172;42.646;23.344;2022-07-11T11:49:51;94725.69;;;23.78;30.34
12219;BME280;6172;42.646;23.344;2022-07-11T11:52:20;94723.75;;;24.01;30.68
12219;BME280;6172;42.646;23.344;2022-07-11T11:54:55;94721.31;;;23.66;31.44
12219;BME280;6172;42.646;23.344;2022-07-11T11:57:26;94719.16;;;23.50;31.82
12219;BME280;6172;42.646;23.344;2022-07-11T11:59:55;94730.03;;;23.48;31.64
12219;BME280;6172;42.646;23.344;2022-07-11T12:02:28;94736.22;;;23.63;31.86
12219;BME280;6172;42.646;23.344;2022-07-11T12:04:56;94722.94;;;23.47;31.38
12219;BME280;6172;42.646;23.344;2022-07-11T12:07:27;94727.31;;;23.59;31.19
12219;BME280;6172;42.646;23.344;2022-07-11T12:09:55;94723.50;;;23.51;31.29
12219;BME280;6172;42.646;23.344;2022-07-11T12:12:25;94713.28;;;23.42;32.41
12219;BME280;6172;42.646;23.344;2022-07-11T12:18:37;94728.91;;;23.29;32.81
12219;BME280;6172;42.646;23.344;2022-07-11T12:21:11;94730.66;;;23.63;31.82
12219;BME280;6172;42.646;23.344;2022-07-11T12:23:43;94720.03;;;23.25;31.83
12219;BME280;6172;42.646;23.344;2022-07-11T12:26:10;94726.13;;;23.29;31.97
12219;BME280;6172;42.646;23.344;2022-07-11T12:29:02;94717.38;;;23.47;31.83
12219;BME280;6172;42.646;23.344;2022-07-11T12:31:47;94720.31;;;22.96;32.12
12219;BME280;6172;42.646;23.344;2022-07-11T12:34:19;94718.84;;;23.42;31.54
12219;BME280;6172;42.646;23.344;2022-07-11T12:37:07;94710.06;;;23.13;31.99
12219;BME280;6172;42.646;23.344;2022-07-11T12:39:37;94723.69;;;23.11;32.10
12219;BME280;6172;42.646;23.344;2022-07-11T12:42:21;94718.94;;;23.17;32.56
12219;BME280;6172;42.646;23.344;2022-07-11T12:44:56;94702.94;;;23.43;32.28
12219;BME280;6172;42.646;23.344;2022-07-11T12:47:30;94713.00;;;23.35;31.17
12219;BME280;6172;42.646;23.344;2022-07-11T12:50:12;94707.31;;;22.87;32.54
12219;BME280;6172;42.646;23.344;2022-07-11T12:52:41;94718.88;;;23.06;32.55
12219;BME280;6172;42.646;23.344;2022-07-11T12:55:11;94715.63;;;23.13;31.98
12219;BME280;6172;42.646;23.344;2022-07-11T12:58:06;94716.00;;;22.95;32.84
12219;BME280;6172;42.646;23.344;2022-07-11T13:00:56;94709.19;;;22.96;32.48
12219;BME280;6172;42.646;23.344;2022-07-11T13:03:47;94705.78;;;23.12;32.13
12219;BME280;6172;42.646;23.344;2022-07-11T13:06:18;94718.28;;;22.96;32.43
12219;BME280;6172;42.646;23.344;2022-07-11T13:09:29;94706.03;;;22.32;32.99
12219;BME280;6172;42.646;23.344;2022-07-11T13:11:55;94719.94;;;22.32;33.50
12219;BME280;6172;42.646;23.344;2022-07-11T13:14:24;94712.84;;;22.82;33.30
12219;BME280;6172;42.646;23.344;2022-07-11T13:17:09;94706.72;;;23.03;32.98